sensor_id;sensor_type;location;lat;lon;timestamp;pressure;altitude;pressure_sealevel;temperature;humidity
45793;BME280;31495;42.740;22.908;2023-01-27T00:00:20;92235.91;;;-0.77;86.62
45793;BME280;31495;42.740;22.908;2023-01-27T00:01:20;92232.88;;;-0.72;86.45
45793;BME280;31495;42.740;22.908;2023-01-27T00:02:19;92163.50;;;-1.28;86.55
45793;BME280;31495;42.740;22.908;2023-01-27T00:03:19;92191.06;;;-1.09;86.50
45793;BME280;31495;42.740;22.908;2023-01-27T00:04:19;92209.25;;;-0.89;86.46
45793;BME280;31495;42.740;22.908;2023-01-27T00:05:18;92155.72;;;-1.27;86.70
45793;BME280;31495;42.740;22.908;2023-01-27T00:06:18;92209.38;;;-0.74;86.20
45793;BME280;31495;42.740;22.908;2023-01-27T00:07:17;92186.25;;;-0.87;86.09
45793;BME280;31495;42.740;22.908;2023-01-27T00:08:17;92223.47;;;-0.63;86.24
45793;BME280;31495;42.740;22.908;2023-01-27T00:09:17;92200.81;;;-0.73;86.44
45793;BME280;31495;42.740;22.908;2023-01-27T00:10:18;92229.97;;;-0.61;86.71
45793;BME280;31495;42.740;22.908;2023-01-27T00:11:18;92208.91;;;-0.78;86.82
45793;BME280;31495;42.740;22.908;2023-01-27T00:12:36;92200.22;;;-0.83;87.02
45793;BME280;31495;42.740;22.908;2023-01-27T00:13:55;92194.81;;;-0.80;86.91
45793;BME280;31495;42.740;22.908;2023-01-27T00:14:54;92196.81;;;-0.76;86.46
45793;BME280;31495;42.740;22.908;2023-01-27T00:15:54;92206.53;;;-0.79;86.21
45793;BME280;31495;42.740;22.908;2023-01-27T00:16:53;92208.91;;;-0.78;86.13
45793;BME280;31495;42.740;22.908;2023-01-27T00:17:53;92220.50;;;-0.75;86.48
45793;BME280;31495;42.740;22.908;2023-01-27T00:18:52;92109.94;;;-1.42;86.51
45793;BME280;31495;42.740;22.908;2023-01-27T00:19:52;92146.69;;;-1.21;86.50
45793;BME280;31495;42.740;22.908;2023-01-27T00:20:51;92189.25;;;-0.92;86.80
45793;BME280;31495;42.740;22.908;2023-01-27T00:22:10;92219.19;;;-0.71;86.81
45793;BME280;31495;42.740;22.908;2023-01-27T00:23:28;92175.97;;;-1.02;86.79
45793;BME280;31495;42.740;22.908;2023-01-27T00:24:46;92192.78;;;-0.93;87.07
45793;BME280;31495;42.740;22.908;2023-01-27T00:25:46;92214.28;;;-0.72;86.93
45793;BME280;31495;42.740;22.908;2023-01-27T00:26:48;92197.03;;;-0.85;87.14
45793;BME280;31495;42.740;22.908;2023-01-27T00:27:48;92150.44;;;-1.09;87.07
45793;BME280;31495;42.740;22.908;2023-01-27T00:28:47;92158.66;;;-0.99;87.07
45793;BME280;31495;42.740;22.908;2023-01-27T00:29:47;92147.91;;;-1.09;86.98
45793;BME280;31495;42.740;22.908;2023-01-27T00:30:46;92198.75;;;-0.78;87.12
45793;BME280;31495;42.740;22.908;2023-01-27T00:31:45;92193.66;;;-0.78;86.58
45793;BME280;31495;42.740;22.908;2023-01-27T00:33:04;92196.03;;;-0.76;86.57
45793;BME280;31495;42.740;22.908;2023-01-27T00:34:22;92192.88;;;-0.78;86.69
45793;BME280;31495;42.740;22.908;2023-01-27T00:35:22;92167.38;;;-0.93;86.83
45793;BME280;31495;42.740;22.908;2023-01-27T00:36:22;92176.09;;;-0.87;86.89
45793;BME280;31495;42.740;22.908;2023-01-27T00:37:21;92137.13;;;-1.11;87.04
45793;BME280;31495;42.740;22.908;2023-01-27T00:38:21;92160.25;;;-0.98;87.12
45793;BME280;31495;42.740;22.908;2023-01-27T00:39:20;92139.19;;;-1.06;86.93
45793;BME280;31495;42.740;22.908;2023-01-27T00:40:19;92180.66;;;-0.83;86.70
45793;BME280;31495;42.740;22.908;2023-01-27T00:41:19;92145.66;;;-1.04;86.85
45793;BME280;31495;42.740;22.908;2023-01-27T00:42:19;92183.66;;;-0.79;86.63
45793;BME280;31495;42.740;22.908;2023-01-27T00:43:18;92179.44;;;-0.87;86.68
45793;BME280;31495;42.740;22.908;2023-01-27T00:44:18;92193.38;;;-0.83;86.67
45793;BME280;31495;42.740;22.908;2023-01-27T00:45:17;92175.94;;;-0.94;86.44
45793;BME280;31495;42.740;22.908;2023-01-27T00:46:36;92171.34;;;-0.99;86.38
45793;BME280;31495;42.740;22.908;2023-01-27T00:47:35;92193.53;;;-0.84;86.55
45793;BME280;31495;42.740;22.908;2023-01-27T00:48:35;92185.91;;;-0.84;86.61
45793;BME280;31495;42.740;22.908;2023-01-27T00:49:34;92194.13;;;-0.74;86.02
45793;BME280;31495;42.740;22.908;2023-01-27T00:50:34;92181.75;;;-0.77;85.97
45793;BME280;31495;42.740;22.908;2023-01-27T00:51:33;92184.81;;;-0.82;85.71
45793;BME280;31495;42.740;22.908;2023-01-27T00:52:34;92197.63;;;-0.75;85.76
45793;BME280;31495;42.740;22.908;2023-01-27T00:53:34;92176.56;;;-0.92;85.95
45793;BME280;31495;42.740;22.908;2023-01-27T00:54:34;92164.56;;;-0.98;86.42
45793;BME280;31495;42.740;22.908;2023-01-27T00:55:33;92139.84;;;-1.13;86.00
45793;BME280;31495;42.740;22.908;2023-01-27T00:56:33;92201.91;;;-0.76;86.23
45793;BME280;31495;42.740;22.908;2023-01-27T00:57:33;92158.19;;;-1.02;85.84
45793;BME280;31495;42.740;22.908;2023-01-27T00:58:32;92155.50;;;-1.01;85.64
45793;BME280;31495;42.740;22.908;2023-01-27T00:59:32;92149.22;;;-1.13;85.97
45793;BME280;31495;42.740;22.908;2023-01-27T01:00:31;92161.53;;;-1.02;85.92
45793;BME280;31495;42.740;22.908;2023-01-27T01:01:31;92193.81;;;-0.79;86.09
45793;BME280;31495;42.740;22.908;2023-01-27T01:02:32;92194.13;;;-0.74;85.70
45793;BME280;31495;42.740;22.908;2023-01-27T01:03:33;92193.50;;;-0.76;85.85
45793;BME280;31495;42.740;22.908;2023-01-27T01:04:33;92184.84;;;-0.90;85.83
45793;BME280;31495;42.740;22.908;2023-01-27T01:05:32;92196.03;;;-0.76;86.06
45793;BME280;31495;42.740;22.908;2023-01-27T01:06:32;92197.47;;;-0.73;85.83
45793;BME280;31495;42.740;22.908;2023-01-27T01:07:31;92186.81;;;-0.77;85.75
45793;BME280;31495;42.740;22.908;2023-01-27T01:08:32;92191.88;;;-0.69;85.94
45793;BME280;31495;42.740;22.908;2023-01-27T01:09:32;92161.47;;;-0.85;85.86
45793;BME280;31495;42.740;22.908;2023-01-27T01:10:32;92131.72;;;-1.08;85.68
45793;BME280;31495;42.740;22.908;2023-01-27T01:11:31;92197.28;;;-0.64;85.55
45793;BME280;31495;42.740;22.908;2023-01-27T01:12:31;92187.59;;;-0.68;85.75
45793;BME280;31495;42.740;22.908;2023-01-27T01:13:30;92176.50;;;-0.76;85.40
45793;BME280;31495;42.740;22.908;2023-01-27T01:14:30;92192.81;;;-0.62;85.31
45793;BME280;31495;42.740;22.908;2023-01-27T01:15:34;92177.22;;;-0.90;85.29
45793;BME280;31495;42.740;22.908;2023-01-27T01:16:33;92146.44;;;-1.03;85.32
45793;BME280;31495;42.740;22.908;2023-01-27T01:17:33;92203.34;;;-0.73;85.80
45793;BME280;31495;42.740;22.908;2023-01-27T01:18:32;92157.75;;;-1.06;85.44
45793;BME280;31495;42.740;22.908;2023-01-27T01:19:32;92171.84;;;-0.95;85.60
45793;BME280;31495;42.740;22.908;2023-01-27T01:20:38;92209.53;;;-0.76;85.73
45793;BME280;31495;42.740;22.908;2023-01-27T01:21:38;92164.72;;;-1.00;85.62
45793;BME280;31495;42.740;22.908;2023-01-27T01:22:38;92200.19;;;-0.75;85.63
45793;BME280;31495;42.740;22.908;2023-01-27T01:23:41;92206.34;;;-0.69;85.58
45793;BME280;31495;42.740;22.908;2023-01-27T01:24:41;92172.47;;;-0.93;85.74
45793;BME280;31495;42.740;22.908;2023-01-27T01:25:41;92173.38;;;-0.86;85.12
45793;BME280;31495;42.740;22.908;2023-01-27T01:26:40;92146.00;;;-1.07;85.53
45793;BME280;31495;42.740;22.908;2023-01-27T01:27:43;92195.59;;;-0.80;85.49
45793;BME280;31495;42.740;22.908;2023-01-27T01:28:43;92203.50;;;-0.75;85.31
45793;BME280;31495;42.740;22.908;2023-01-27T01:29:43;92212.69;;;-0.65;85.47
45793;BME280;31495;42.740;22.908;2023-01-27T01:30:42;92179.75;;;-0.90;85.37
45793;BME280;31495;42.740;22.908;2023-01-27T01:31:42;92159.34;;;-1.05;85.78
45793;BME280;31495;42.740;22.908;2023-01-27T01:32:41;92208.41;;;-0.73;85.82
45793;BME280;31495;42.740;22.908;2023-01-27T01:33:41;92188.00;;;-0.88;86.01
45793;BME280;31495;42.740;22.908;2023-01-27T01:34:40;92210.00;;;-0.72;85.90
45793;BME280;31495;42.740;22.908;2023-01-27T01:35:40;92208.72;;;-0.68;85.92
45793;BME280;31495;42.740;22.908;2023-01-27T01:36:40;92222.53;;;-0.62;85.74
45793;BME280;31495;42.740;22.908;2023-01-27T01:37:39;92171.97;;;-0.88;85.68
45793;BME280;31495;42.740;22.908;2023-01-27T01:38:39;92215.06;;;-0.64;85.58
45793;BME280;31495;42.740;22.908;2023-01-27T01:39:38;92197.81;;;-0.77;85.55
45793;BME280;31495;42.740;22.908;2023-01-27T01:40:40;92224.91;;;-0.61;85.43
45793;BME280;31495;42.740;22.908;2023-01-27T01:41:40;92198.09;;;-0.71;85.29
45793;BME280;31495;42.740;22.908;2023-01-27T01:43:49;92220.28;;;-0.57;85.15
45793;BME280;31495;42.740;22.908;2023-01-27T01:44:53;92199.19;;;-0.74;85.26
45793;BME280;31495;42.740;22.908;2023-01-27T01:46:10;92222.66;;;-0.56;85.36
45793;BME280;31495;42.740;22.908;2023-01-27T01:47:15;92202.69;;;-0.67;85.33
45793;BME280;31495;42.740;22.908;2023-01-27T01:48:21;92159.41;;;-0.82;85.04
45793;BME280;31495;42.740;22.908;2023-01-27T01:49:35;92207.22;;;-0.46;84.55
45793;BME280;31495;42.740;22.908;2023-01-27T01:50:38;92204.84;;;-0.47;84.79
45793;BME280;31495;42.740;22.908;2023-01-27T01:51:41;92207.69;;;-0.50;84.88
45793;BME280;31495;42.740;22.908;2023-01-27T01:52:42;92196.94;;;-0.61;84.94
45793;BME280;31495;42.740;22.908;2023-01-27T01:54:01;92200.53;;;-0.47;85.02
45793;BME280;31495;42.740;22.908;2023-01-27T01:55:02;92207.41;;;-0.56;85.20
45793;BME280;31495;42.740;22.908;2023-01-27T01:56:06;92171.91;;;-0.72;85.19
45793;BME280;31495;42.740;22.908;2023-01-27T01:58:16;92183.63;;;-0.71;85.06
45793;BME280;31495;42.740;22.908;2023-01-27T01:59:22;92202.16;;;-0.54;85.52
45793;BME280;31495;42.740;22.908;2023-01-27T02:00:24;92208.97;;;-0.54;85.49
45793;BME280;31495;42.740;22.908;2023-01-27T02:01:23;92202.78;;;-0.52;85.25
45793;BME280;31495;42.740;22.908;2023-01-27T02:02:23;92164.28;;;-0.72;85.01
45793;BME280;31495;42.740;22.908;2023-01-27T02:03:25;92194.84;;;-0.49;84.92
45793;BME280;31495;42.740;22.908;2023-01-27T02:04:32;92160.16;;;-0.73;85.18
45793;BME280;31495;42.740;22.908;2023-01-27T02:05:36;92160.59;;;-0.69;85.18
45793;BME280;31495;42.740;22.908;2023-01-27T02:06:46;92194.16;;;-0.43;85.14
45793;BME280;31495;42.740;22.908;2023-01-27T02:08:06;92190.31;;;-0.39;84.75
45793;BME280;31495;42.740;22.908;2023-01-27T02:09:08;92147.13;;;-0.70;84.88
45793;BME280;31495;42.740;22.908;2023-01-27T02:10:09;92112.75;;;-0.89;84.88
45793;BME280;31495;42.740;22.908;2023-01-27T02:11:10;92163.13;;;-0.61;85.12
45793;BME280;31495;42.740;22.908;2023-01-27T02:12:09;92173.69;;;-0.49;85.20
45793;BME280;31495;42.740;22.908;2023-01-27T02:13:09;92170.81;;;-0.46;85.01
45793;BME280;31495;42.740;22.908;2023-01-27T02:14:10;92171.78;;;-0.47;85.17
45793;BME280;31495;42.740;22.908;2023-01-27T02:15:12;92173.84;;;-0.51;85.59
45793;BME280;31495;42.740;22.908;2023-01-27T02:16:12;92115.78;;;-0.94;85.48
45793;BME280;31495;42.740;22.908;2023-01-27T02:17:12;92147.28;;;-0.71;85.79
45793;BME280;31495;42.740;22.908;2023-01-27T02:18:12;92173.06;;;-0.51;85.46
45793;BME280;31495;42.740;22.908;2023-01-27T02:19:24;92095.66;;;-0.95;85.33
45793;BME280;31495;42.740;22.908;2023-01-27T02:20:45;92162.28;;;-0.53;85.44
45793;BME280;31495;42.740;22.908;2023-01-27T02:21:47;92094.03;;;-0.88;85.29
45793;BME280;31495;42.740;22.908;2023-01-27T02:24:31;92146.59;;;-0.57;85.00
45793;BME280;31495;42.740;22.908;2023-01-27T02:26:37;92108.41;;;-0.72;85.09
45793;BME280;31495;42.740;22.908;2023-01-27T02:27:39;92112.00;;;-0.66;85.06
45793;BME280;31495;42.740;22.908;2023-01-27T02:28:38;92127.66;;;-0.54;85.19
45793;BME280;31495;42.740;22.908;2023-01-27T02:29:37;92104.28;;;-0.73;85.15
45793;BME280;31495;42.740;22.908;2023-01-27T02:30:37;92111.84;;;-0.65;85.24
45793;BME280;31495;42.740;22.908;2023-01-27T02:31:37;92111.41;;;-0.68;85.15
45793;BME280;31495;42.740;22.908;2023-01-27T02:32:36;92141.00;;;-0.52;85.43
45793;BME280;31495;42.740;22.908;2023-01-27T02:33:36;92113.94;;;-0.68;85.74
45793;BME280;31495;42.740;22.908;2023-01-27T02:34:37;92140.03;;;-0.51;85.65
45793;BME280;31495;42.740;22.908;2023-01-27T02:37:03;92106.78;;;-0.65;85.78
45793;BME280;31495;42.740;22.908;2023-01-27T02:38:05;92115.00;;;-0.63;85.83
45793;BME280;31495;42.740;22.908;2023-01-27T02:39:07;92122.13;;;-0.58;85.77
45793;BME280;31495;42.740;22.908;2023-01-27T02:40:09;92124.97;;;-0.53;85.98
45793;BME280;31495;42.740;22.908;2023-01-27T02:41:26;92124.19;;;-0.53;85.92
45793;BME280;31495;42.740;22.908;2023-01-27T02:42:25;92123.91;;;-0.59;85.94
45793;BME280;31495;42.740;22.908;2023-01-27T02:43:26;92121.81;;;-0.55;85.77
45793;BME280;31495;42.740;22.908;2023-01-27T02:44:26;92091.41;;;-0.71;85.75
45793;BME280;31495;42.740;22.908;2023-01-27T02:45:25;92117.28;;;-0.45;85.74
45793;BME280;31495;42.740;22.908;2023-01-27T02:46:25;92106.22;;;-0.52;85.60
45793;BME280;31495;42.740;22.908;2023-01-27T02:47:24;92112.53;;;-0.48;85.56
45793;BME280;31495;42.740;22.908;2023-01-27T02:48:24;92116.22;;;-0.50;85.59
45793;BME280;31495;42.740;22.908;2023-01-27T02:49:23;92086.66;;;-0.75;85.60
45793;BME280;31495;42.740;22.908;2023-01-27T02:50:23;92124.00;;;-0.52;85.75
45793;BME280;31495;42.740;22.908;2023-01-27T02:51:23;92125.78;;;-0.52;85.73
45793;BME280;31495;42.740;22.908;2023-01-27T02:52:22;92089.19;;;-0.75;85.96
45793;BME280;31495;42.740;22.908;2023-01-27T02:53:22;92107.31;;;-0.78;86.16
45793;BME280;31495;42.740;22.908;2023-01-27T02:54:23;92116.81;;;-0.71;86.31
45793;BME280;31495;42.740;22.908;2023-01-27T02:55:23;92097.94;;;-0.77;86.29
45793;BME280;31495;42.740;22.908;2023-01-27T02:56:23;92116.16;;;-0.65;86.29
45793;BME280;31495;42.740;22.908;2023-01-27T02:57:23;92108.84;;;-0.68;86.18
45793;BME280;31495;42.740;22.908;2023-01-27T02:58:22;92084.63;;;-0.79;86.13
45793;BME280;31495;42.740;22.908;2023-01-27T02:59:22;92096.19;;;-0.77;85.81
45793;BME280;31495;42.740;22.908;2023-01-27T03:00:21;92085.09;;;-0.84;86.01
45793;BME280;31495;42.740;22.908;2023-01-27T03:01:22;92123.72;;;-0.57;86.20
45793;BME280;31495;42.740;22.908;2023-01-27T03:02:22;92129.59;;;-0.57;86.21
45793;BME280;31495;42.740;22.908;2023-01-27T03:03:28;92138.75;;;-0.47;86.08
45793;BME280;31495;42.740;22.908;2023-01-27T03:04:28;92111.81;;;-0.57;86.02
45793;BME280;31495;42.740;22.908;2023-01-27T03:05:28;92099.75;;;-0.63;86.05
45793;BME280;31495;42.740;22.908;2023-01-27T03:06:27;92083.09;;;-0.88;86.02
45793;BME280;31495;42.740;22.908;2023-01-27T03:07:26;92092.72;;;-0.84;85.84
45793;BME280;31495;42.740;22.908;2023-01-27T03:08:26;92110.59;;;-0.69;86.02
45793;BME280;31495;42.740;22.908;2023-01-27T03:09:25;92113.59;;;-0.65;85.50
45793;BME280;31495;42.740;22.908;2023-01-27T03:10:25;92130.84;;;-0.52;85.76
45793;BME280;31495;42.740;22.908;2023-01-27T03:11:24;92117.34;;;-0.53;85.44
45793;BME280;31495;42.740;22.908;2023-01-27T03:12:43;92118.66;;;-0.57;85.54
45793;BME280;31495;42.740;22.908;2023-01-27T03:13:43;92122.31;;;-0.60;85.70
45793;BME280;31495;42.740;22.908;2023-01-27T03:14:42;92108.03;;;-0.61;85.65
45793;BME280;31495;42.740;22.908;2023-01-27T03:16:01;92134.97;;;-0.51;85.23
45793;BME280;31495;42.740;22.908;2023-01-27T03:17:19;92091.75;;;-0.75;84.86
45793;BME280;31495;42.740;22.908;2023-01-27T03:18:37;92134.13;;;-0.44;84.92
45793;BME280;31495;42.740;22.908;2023-01-27T03:19:37;92088.69;;;-0.70;84.98
45793;BME280;31495;42.740;22.908;2023-01-27T03:20:41;92115.00;;;-0.63;83.96
45793;BME280;31495;42.740;22.908;2023-01-27T03:21:40;92099.81;;;-0.71;83.89
45793;BME280;31495;42.740;22.908;2023-01-27T03:22:40;92106.16;;;-0.67;84.13
45793;BME280;31495;42.740;22.908;2023-01-27T03:23:39;92108.03;;;-0.69;84.22
45793;BME280;31495;42.740;22.908;2023-01-27T03:24:39;92108.75;;;-0.75;83.96
45793;BME280;31495;42.740;22.908;2023-01-27T03:25:46;92093.38;;;-0.82;84.09
45793;BME280;31495;42.740;22.908;2023-01-27T03:26:46;92128.69;;;-0.64;84.26
45793;BME280;31495;42.740;22.908;2023-01-27T03:27:46;92107.47;;;-0.79;84.52
45793;BME280;31495;42.740;22.908;2023-01-27T03:28:45;92092.72;;;-0.84;84.71
45793;BME280;31495;42.740;22.908;2023-01-27T03:30:05;92105.50;;;-0.69;84.81
45793;BME280;31495;42.740;22.908;2023-01-27T03:31:08;92097.44;;;-0.72;84.95
45793;BME280;31495;42.740;22.908;2023-01-27T03:32:07;92066.25;;;-0.89;84.72
45793;BME280;31495;42.740;22.908;2023-01-27T03:33:07;92071.00;;;-0.86;84.63
45793;BME280;31495;42.740;22.908;2023-01-27T03:34:07;92121.63;;;-0.53;85.02
45793;BME280;31495;42.740;22.908;2023-01-27T03:35:06;92109.59;;;-0.60;84.60
45793;BME280;31495;42.740;22.908;2023-01-27T03:36:06;92099.59;;;-0.61;84.62
45793;BME280;31495;42.740;22.908;2023-01-27T03:37:25;92101.03;;;-0.59;84.56
45793;BME280;31495;42.740;22.908;2023-01-27T03:38:43;92075.56;;;-0.73;84.54
45793;BME280;31495;42.740;22.908;2023-01-27T03:40:02;92073.34;;;-0.77;84.57
45793;BME280;31495;42.740;22.908;2023-01-27T03:41:21;92088.53;;;-0.68;84.43
45793;BME280;31495;42.740;22.908;2023-01-27T03:42:39;92068.03;;;-0.90;83.79
45793;BME280;31495;42.740;22.908;2023-01-27T03:43:58;92090.16;;;-0.76;84.09
45793;BME280;31495;42.740;22.908;2023-01-27T03:45:16;92085.75;;;-0.82;84.08
45793;BME280;31495;42.740;22.908;2023-01-27T03:46:34;92080.25;;;-0.94;84.27
45793;BME280;31495;42.740;22.908;2023-01-27T03:47:34;92092.28;;;-0.87;84.56
45793;BME280;31495;42.740;22.908;2023-01-27T03:48:33;92104.59;;;-0.76;84.33
45793;BME280;31495;42.740;22.908;2023-01-27T03:49:34;92065.84;;;-1.01;84.21
45793;BME280;31495;42.740;22.908;2023-01-27T03:50:34;92075.50;;;-0.97;84.42
45793;BME280;31495;42.740;22.908;2023-01-27T03:51:36;92101.28;;;-0.77;84.51
45793;BME280;31495;42.740;22.908;2023-01-27T03:52:36;92067.47;;;-1.08;84.62
45793;BME280;31495;42.740;22.908;2023-01-27T03:53:36;92089.00;;;-0.96;84.53
45793;BME280;31495;42.740;22.908;2023-01-27T03:54:36;92074.78;;;-1.14;84.45
45793;BME280;31495;42.740;22.908;2023-01-27T03:55:36;92100.94;;;-1.05;85.10
45793;BME280;31495;42.740;22.908;2023-01-27T03:56:36;92058.38;;;-1.34;85.17
45793;BME280;31495;42.740;22.908;2023-01-27T03:57:36;92094.94;;;-1.12;85.64
45793;BME280;31495;42.740;22.908;2023-01-27T03:58:36;92049.19;;;-1.35;85.80
45793;BME280;31495;42.740;22.908;2023-01-27T03:59:36;92085.59;;;-1.20;86.06
45793;BME280;31495;42.740;22.908;2023-01-27T04:00:35;92087.50;;;-1.22;85.59
45793;BME280;31495;42.740;22.908;2023-01-27T04:01:35;92078.00;;;-1.28;86.15
45793;BME280;31495;42.740;22.908;2023-01-27T04:02:34;92074.53;;;-1.27;86.06
45793;BME280;31495;42.740;22.908;2023-01-27T04:03:53;92076.00;;;-1.41;86.38
45793;BME280;31495;42.740;22.908;2023-01-27T04:05:11;92054.28;;;-1.43;86.62
45793;BME280;31495;42.740;22.908;2023-01-27T04:06:32;92013.16;;;-1.70;86.54
45793;BME280;31495;42.740;22.908;2023-01-27T04:07:50;92068.84;;;-1.37;86.17
45793;BME280;31495;42.740;22.908;2023-01-27T04:08:50;92042.78;;;-1.71;85.92
45793;BME280;31495;42.740;22.908;2023-01-27T04:09:50;92085.22;;;-1.48;86.16
45793;BME280;31495;42.740;22.908;2023-01-27T04:10:50;92060.19;;;-1.59;86.92
45793;BME280;31495;42.740;22.908;2023-01-27T04:12:09;92076.22;;;-1.59;87.08
45793;BME280;31495;42.740;22.908;2023-01-27T04:13:09;92045.16;;;-1.77;87.29
45793;BME280;31495;42.740;22.908;2023-01-27T04:14:10;92068.13;;;-1.71;86.78
45793;BME280;31495;42.740;22.908;2023-01-27T04:15:10;92039.50;;;-1.96;87.26
45793;BME280;31495;42.740;22.908;2023-01-27T04:16:09;92094.28;;;-1.62;87.27
45793;BME280;31495;42.740;22.908;2023-01-27T04:17:14;92100.94;;;-1.61;87.39
45793;BME280;31495;42.740;22.908;2023-01-27T04:18:14;92045.69;;;-1.98;87.63
45793;BME280;31495;42.740;22.908;2023-01-27T04:19:14;92101.91;;;-1.62;87.78
45793;BME280;31495;42.740;22.908;2023-01-27T04:20:14;92090.03;;;-1.70;87.76
45793;BME280;31495;42.740;22.908;2023-01-27T04:21:13;92086.56;;;-1.77;87.53
45793;BME280;31495;42.740;22.908;2023-01-27T04:22:14;92053.44;;;-1.83;87.59
45793;BME280;31495;42.740;22.908;2023-01-27T04:23:13;92084.00;;;-1.69;87.49
45793;BME280;31495;42.740;22.908;2023-01-27T04:24:14;92113.59;;;-1.53;87.88
45793;BME280;31495;42.740;22.908;2023-01-27T04:25:23;92089.72;;;-1.75;87.74
45793;BME280;31495;42.740;22.908;2023-01-27T04:26:22;92115.22;;;-1.60;87.56
45793;BME280;31495;42.740;22.908;2023-01-27T04:27:22;92110.13;;;-1.60;87.55
45793;BME280;31495;42.740;22.908;2023-01-27T04:28:21;92106.50;;;-1.57;87.34
45793;BME280;31495;42.740;22.908;2023-01-27T04:29:24;92115.94;;;-1.43;87.28
45793;BME280;31495;42.740;22.908;2023-01-27T04:30:24;92059.59;;;-1.78;86.88
45793;BME280;31495;42.740;22.908;2023-01-27T04:31:24;92093.31;;;-1.53;87.21
45793;BME280;31495;42.740;22.908;2023-01-27T04:32:23;92098.50;;;-1.46;87.12
45793;BME280;31495;42.740;22.908;2023-01-27T04:33:24;92118.47;;;-1.35;86.83
45793;BME280;31495;42.740;22.908;2023-01-27T04:34:24;92092.66;;;-1.46;87.01
45793;BME280;31495;42.740;22.908;2023-01-27T04:35:24;92092.03;;;-1.49;87.03
45793;BME280;31495;42.740;22.908;2023-01-27T04:36:24;92083.34;;;-1.62;86.94
45793;BME280;31495;42.740;22.908;2023-01-27T04:37:23;92134.03;;;-1.30;86.94
45793;BME280;31495;42.740;22.908;2023-01-27T04:38:22;92080.47;;;-1.59;86.29
45793;BME280;31495;42.740;22.908;2023-01-27T04:39:22;92121.50;;;-1.31;86.58
45793;BME280;31495;42.740;22.908;2023-01-27T04:40:22;92120.22;;;-1.35;86.38
45793;BME280;31495;42.740;22.908;2023-01-27T04:41:21;92095.38;;;-1.56;86.64
45793;BME280;31495;42.740;22.908;2023-01-27T04:42:20;92084.47;;;-1.65;86.91
45793;BME280;31495;42.740;22.908;2023-01-27T04:43:20;92128.78;;;-1.36;87.17
45793;BME280;31495;42.740;22.908;2023-01-27T04:44:19;92153.00;;;-1.17;86.82
45793;BME280;31495;42.740;22.908;2023-01-27T04:45:19;92147.16;;;-1.18;86.69
45793;BME280;31495;42.740;22.908;2023-01-27T04:46:18;92126.41;;;-1.38;86.64
45793;BME280;31495;42.740;22.908;2023-01-27T04:47:18;92146.50;;;-1.20;86.67
45793;BME280;31495;42.740;22.908;2023-01-27T04:48:17;92160.94;;;-1.12;86.15
45793;BME280;31495;42.740;22.908;2023-01-27T04:49:17;92155.09;;;-1.21;85.91
45793;BME280;31495;42.740;22.908;2023-01-27T04:50:17;92128.50;;;-1.50;86.21
45793;BME280;31495;42.740;22.908;2023-01-27T04:51:17;92111.44;;;-1.64;86.15
45793;BME280;31495;42.740;22.908;2023-01-27T04:52:17;92171.09;;;-1.20;86.25
45793;BME280;31495;42.740;22.908;2023-01-27T04:53:16;92144.69;;;-1.42;86.30
45793;BME280;31495;42.740;22.908;2023-01-27T04:54:16;92176.19;;;-1.20;86.67
45793;BME280;31495;42.740;22.908;2023-01-27T04:55:15;92182.22;;;-1.21;86.38
45793;BME280;31495;42.740;22.908;2023-01-27T04:56:39;92180.16;;;-1.26;86.45
45793;BME280;31495;42.740;22.908;2023-01-27T04:57:39;92167.34;;;-1.33;86.56
45793;BME280;31495;42.740;22.908;2023-01-27T04:58:38;92188.38;;;-1.16;86.64
45793;BME280;31495;42.740;22.908;2023-01-27T04:59:38;92178.25;;;-1.24;86.48
45793;BME280;31495;42.740;22.908;2023-01-27T05:00:37;92188.38;;;-1.07;86.08
45793;BME280;31495;42.740;22.908;2023-01-27T05:01:37;92180.63;;;-1.14;85.52
45793;BME280;31495;42.740;22.908;2023-01-27T05:02:37;92185.38;;;-1.11;85.43
45793;BME280;31495;42.740;22.908;2023-01-27T05:03:36;92128.81;;;-1.53;84.45
45793;BME280;31495;42.740;22.908;2023-01-27T05:04:36;92192.97;;;-1.11;84.13
45793;BME280;31495;42.740;22.908;2023-01-27T05:05:36;92187.59;;;-1.16;84.34
45793;BME280;31495;42.740;22.908;2023-01-27T05:06:35;92154.81;;;-1.42;84.46
45793;BME280;31495;42.740;22.908;2023-01-27T05:07:35;92186.78;;;-1.17;85.07
45793;BME280;31495;42.740;22.908;2023-01-27T05:08:35;92177.47;;;-1.24;85.05
45793;BME280;31495;42.740;22.908;2023-01-27T05:09:34;92143.72;;;-1.41;85.04
45793;BME280;31495;42.740;22.908;2023-01-27T05:10:34;92145.91;;;-1.38;84.89
45793;BME280;31495;42.740;22.908;2023-01-27T05:11:33;92179.66;;;-1.13;85.11
45793;BME280;31495;42.740;22.908;2023-01-27T05:12:33;92158.28;;;-1.27;85.54
45793;BME280;31495;42.740;22.908;2023-01-27T05:13:33;92103.47;;;-1.61;85.75
45793;BME280;31495;42.740;22.908;2023-01-27T05:14:32;92175.50;;;-1.06;85.49
45793;BME280;31495;42.740;22.908;2023-01-27T05:15:32;92107.09;;;-1.47;85.54
45793;BME280;31495;42.740;22.908;2023-01-27T05:16:31;92154.78;;;-1.26;85.36
45793;BME280;31495;42.740;22.908;2023-01-27T05:17:32;92135.28;;;-1.34;85.68
45793;BME280;31495;42.740;22.908;2023-01-27T05:18:32;92161.44;;;-1.25;85.66
45793;BME280;31495;42.740;22.908;2023-01-27T05:19:32;92122.31;;;-1.47;85.56
45793;BME280;31495;42.740;22.908;2023-01-27T05:20:31;92157.94;;;-1.24;85.79
45793;BME280;31495;42.740;22.908;2023-01-27T05:21:31;92192.44;;;-0.90;85.24
45793;BME280;31495;42.740;22.908;2023-01-27T05:22:30;92196.41;;;-0.87;85.02
45793;BME280;31495;42.740;22.908;2023-01-27T05:23:29;92169.50;;;-1.05;84.55
45793;BME280;31495;42.740;22.908;2023-01-27T05:24:36;92155.53;;;-1.09;84.23
45793;BME280;31495;42.740;22.908;2023-01-27T05:25:43;92185.16;;;-0.93;84.49
45793;BME280;31495;42.740;22.908;2023-01-27T05:26:43;92166.28;;;-0.99;84.53
45793;BME280;31495;42.740;22.908;2023-01-27T05:27:42;92174.50;;;-0.88;84.89
45793;BME280;31495;42.740;22.908;2023-01-27T05:28:44;92154.56;;;-1.00;84.49
45793;BME280;31495;42.740;22.908;2023-01-27T05:29:44;92170.84;;;-0.86;84.43
45793;BME280;31495;42.740;22.908;2023-01-27T05:30:43;92160.72;;;-0.94;83.22
45793;BME280;31495;42.740;22.908;2023-01-27T05:31:43;92140.59;;;-1.04;83.15